createdAt,value
2017-11-18T00:02:24.398Z,28.27
2017-11-18T00:04:53.281Z,30.30
2017-11-18T00:07:22.169Z,27.50
2017-11-18T00:09:51.031Z,30.60
2017-11-18T00:12:19.926Z,28.30
2017-11-18T00:14:48.786Z,28.80
2017-11-18T00:17:17.868Z,30.40
2017-11-18T00:19:46.733Z,29.23
2017-11-18T00:22:15.594Z,28.37
2017-11-18T00:24:44.467Z,30.20
2017-11-18T00:27:13.353Z,29.10
2017-11-18T00:29:42.228Z,30.20
2017-11-18T00:32:11.087Z,28.67
2017-11-18T00:34:39.975Z,28.70
2017-11-18T00:37:08.829Z,29.30
2017-11-18T00:39:37.716Z,30.77
2017-11-18T00:42:06.567Z,29.67
2017-11-18T00:44:35.456Z,29.70
2017-11-18T00:47:04.323Z,29.50
2017-11-18T00:49:33.190Z,28.50
2017-11-18T00:52:02.049Z,27.87
2017-11-18T00:54:30.938Z,29.50
2017-11-18T00:56:59.803Z,26.87
2017-11-18T00:59:28.708Z,27.17
2017-11-18T01:01:57.572Z,26.37
2017-11-18T01:04:26.430Z,30.37
2017-11-18T01:06:55.322Z,29.03
2017-11-18T01:09:25.056Z,32.37
2017-11-18T01:11:53.940Z,29.03
2017-11-18T01:14:22.802Z,28.27
2017-11-18T01:16:51.675Z,31.27
2017-11-18T01:19:20.529Z,31.27
2017-11-18T01:21:49.394Z,30.23
2017-11-18T01:24:18.256Z,29.33
2017-11-18T01:26:47.109Z,29.67
2017-11-18T01:29:15.997Z,30.50
2017-11-18T01:31:44.857Z,31.17
2017-11-18T01:34:13.740Z,32.47
2017-11-18T01:36:42.596Z,30.20
2017-11-18T01:39:11.496Z,32.70
2017-11-18T01:41:40.363Z,29.87
2017-11-18T01:44:09.230Z,31.77
2017-11-18T01:46:38.138Z,32.87
2017-11-18T01:49:07.000Z,31.80
2017-11-18T01:51:35.933Z,28.50
2017-11-18T01:54:04.793Z,31.53
2017-11-18T01:56:33.679Z,29.00
2017-11-18T01:59:02.528Z,32.90
2017-11-18T02:01:31.406Z,31.43
2017-11-18T02:04:00.272Z,30.00
2017-11-18T02:06:29.124Z,29.97
2017-11-18T02:08:58.008Z,30.30
2017-11-18T02:11:26.887Z,29.67
2017-11-18T02:13:55.760Z,31.77
2017-11-18T02:16:24.618Z,34.03
2017-11-18T02:18:53.508Z,28.97
2017-11-18T02:21:22.359Z,27.87
2017-11-18T02:23:51.226Z,28.80
2017-11-18T02:26:20.085Z,28.67
2017-11-18T02:28:48.969Z,29.73
2017-11-18T02:31:17.844Z,31.00
2017-11-18T02:33:46.711Z,29.90
2017-11-18T02:36:15.587Z,28.53
2017-11-18T02:38:44.476Z,30.30
2017-11-18T02:41:13.328Z,30.57
2017-11-18T02:43:42.194Z,29.50
2017-11-18T02:46:11.079Z,30.83
2017-11-18T02:48:39.943Z,29.20
2017-11-18T02:51:08.813Z,29.30
2017-11-18T02:53:37.720Z,26.93
2017-11-18T02:56:06.633Z,28.97
2017-11-18T02:58:35.483Z,28.23
2017-11-18T03:01:04.360Z,28.60
2017-11-18T03:03:33.248Z,28.77
2017-11-18T03:06:02.119Z,29.97
2017-11-18T03:08:30.987Z,30.70
2017-11-18T03:10:59.852Z,30.40
2017-11-18T03:13:28.741Z,30.30
2017-11-18T03:15:57.614Z,29.97
2017-11-18T03:18:26.482Z,27.50
2017-11-18T03:20:55.380Z,30.50
2017-11-18T03:23:24.235Z,27.90
2017-11-18T03:25:53.131Z,30.17
2017-11-18T03:28:21.983Z,26.60
2017-11-18T03:30:50.977Z,28.10
2017-11-18T03:33:19.847Z,28.17
2017-11-18T03:35:48.705Z,30.53
2017-11-18T03:38:17.989Z,28.07
2017-11-18T03:40:46.852Z,28.70
2017-11-18T03:43:15.748Z,29.63
2017-11-18T03:45:44.607Z,26.23
2017-11-18T03:48:13.572Z,27.60
2017-11-18T03:50:42.442Z,28.17
2017-11-18T03:53:11.299Z,28.80
2017-11-18T03:55:40.179Z,28.67
2017-11-18T03:58:09.044Z,27.37
2017-11-18T04:00:37.921Z,27.60
2017-11-18T04:03:06.774Z,30.27
2017-11-18T04:05:35.639Z,30.93
2017-11-18T04:08:04.506Z,28.23
2017-11-18T04:10:33.382Z,31.23
2017-11-18T04:13:02.251Z,27.67
2017-11-18T04:15:31.111Z,30.03
2017-11-18T04:18:00.025Z,28.67
2017-11-18T04:20:28.866Z,28.10
2017-11-18T04:22:57.788Z,32.63
2017-11-18T04:25:26.645Z,29.60
2017-11-18T04:27:55.513Z,32.20
2017-11-18T04:30:24.407Z,29.60
2017-11-18T04:32:53.265Z,29.30
2017-11-18T04:35:22.128Z,27.97
2017-11-18T04:37:50.989Z,33.40
2017-11-18T04:40:19.891Z,31.20
2017-11-18T04:42:48.756Z,32.93
2017-11-18T04:45:17.624Z,26.90
2017-11-18T04:47:46.501Z,32.37
2017-11-18T04:50:15.389Z,32.37
2017-11-18T04:52:44.352Z,32.50
2017-11-18T04:55:13.393Z,31.90
2017-11-18T04:57:42.255Z,36.20
2017-11-18T05:00:11.108Z,30.27
2017-11-18T05:02:39.987Z,29.63
2017-11-18T05:05:08.852Z,27.50
2017-11-18T05:07:37.791Z,30.10
2017-11-18T05:10:06.667Z,29.43
2017-11-18T05:12:35.536Z,28.67
2017-11-18T05:15:04.451Z,28.27
2017-11-18T05:17:33.378Z,28.30
2017-11-18T05:20:02.250Z,26.80
2017-11-18T05:22:31.103Z,28.80
2017-11-18T05:24:59.975Z,29.10
2017-11-18T05:27:28.855Z,28.33
2017-11-18T05:29:57.735Z,27.40
2017-11-18T05:32:26.591Z,29.87
2017-11-18T05:34:55.474Z,29.40
2017-11-18T05:37:24.384Z,28.77
2017-11-18T05:39:53.271Z,30.13
2017-11-18T05:42:22.155Z,28.67
2017-11-18T05:44:51.033Z,29.03
2017-11-18T05:47:19.890Z,28.80
2017-11-18T05:49:48.792Z,32.53
2017-11-18T05:52:17.643Z,31.60
2017-11-18T05:54:46.619Z,29.97
2017-11-18T05:57:15.502Z,31.77
2017-11-18T05:59:44.391Z,30.40
2017-11-18T06:02:13.259Z,29.93
2017-11-18T06:04:42.111Z,29.70
2017-11-18T06:07:10.996Z,29.00
2017-11-18T06:09:39.858Z,27.73
2017-11-18T06:12:08.760Z,31.00
2017-11-18T06:14:37.631Z,30.33
2017-11-18T06:17:06.510Z,30.10
2017-11-18T06:19:35.398Z,31.30
2017-11-18T06:22:04.316Z,31.00
2017-11-18T06:24:33.218Z,31.93
2017-11-18T06:27:02.079Z,30.30
2017-11-18T06:29:30.963Z,31.53
2017-11-18T06:31:59.824Z,32.07
2017-11-18T06:34:28.764Z,31.83
2017-11-18T06:36:57.661Z,33.50
2017-11-18T06:39:26.539Z,35.50
2017-11-18T06:41:55.408Z,35.80
2017-11-18T06:44:24.287Z,33.77
2017-11-18T06:46:53.156Z,35.43
2017-11-18T06:49:22.034Z,36.43
2017-11-18T06:51:50.939Z,33.57
2017-11-18T06:54:19.804Z,34.30
2017-11-18T06:56:48.700Z,33.30
2017-11-18T06:59:17.583Z,36.27
2017-11-18T07:01:46.447Z,35.00
2017-11-18T07:04:15.318Z,36.13
2017-11-18T07:06:44.191Z,36.43
2017-11-18T07:09:13.077Z,36.40
2017-11-18T07:11:41.971Z,37.90
2017-11-18T07:14:10.861Z,35.97
2017-11-18T07:16:39.748Z,37.60
2017-11-18T07:19:08.638Z,38.43
2017-11-18T07:21:37.503Z,33.77
2017-11-18T07:24:06.384Z,34.40
2017-11-18T07:26:35.369Z,39.10
2017-11-18T07:29:04.250Z,36.67
2017-11-18T07:31:33.140Z,37.37
2017-11-18T07:34:02.064Z,39.43
2017-11-18T07:36:30.986Z,35.40
2017-11-18T07:38:59.886Z,35.80
2017-11-18T07:41:28.788Z,33.17
2017-11-18T07:43:57.678Z,32.63
2017-11-18T07:46:26.738Z,32.47
2017-11-18T07:48:55.650Z,29.30
2017-11-18T07:51:24.868Z,31.30
2017-11-18T07:53:53.765Z,29.27
2017-11-18T07:56:22.713Z,29.27
2017-11-18T07:58:51.604Z,28.03
2017-11-18T08:01:20.609Z,26.10
2017-11-18T08:03:49.476Z,24.13
2017-11-18T08:06:18.505Z,24.73
2017-11-18T08:08:47.388Z,24.23
2017-11-18T08:11:16.485Z,21.77
2017-11-18T08:13:45.363Z,22.27
2017-11-18T08:16:14.244Z,21.50
2017-11-18T08:18:43.124Z,23.37
2017-11-18T08:21:12.018Z,19.20
2017-11-18T08:23:40.904Z,18.93
2017-11-18T08:26:09.760Z,18.90
2017-11-18T08:28:38.784Z,18.23
2017-11-18T08:31:07.754Z,16.87
2017-11-18T08:33:36.610Z,17.87
2017-11-18T08:36:11.455Z,16.13
2017-11-18T08:38:40.312Z,16.20
2017-11-18T08:41:09.188Z,16.17
2017-11-18T08:43:38.048Z,16.40
2017-11-18T08:46:06.931Z,13.60
2017-11-18T08:48:35.794Z,14.87
2017-11-18T08:51:04.717Z,15.23
2017-11-18T08:53:33.588Z,13.90
2017-11-18T08:56:02.458Z,12.90
2017-11-18T08:58:31.357Z,13.37
2017-11-18T09:01:00.227Z,14.80
2017-11-18T09:03:29.105Z,14.70
2017-11-18T09:05:57.974Z,12.70
2017-11-18T09:08:26.864Z,13.40
2017-11-18T09:10:55.722Z,12.90
2017-11-18T09:13:24.613Z,13.47
2017-11-18T09:15:53.523Z,13.00
2017-11-18T09:18:22.428Z,12.40
2017-11-18T09:20:51.316Z,12.80
2017-11-18T09:23:20.167Z,13.03
2017-11-18T09:25:49.040Z,12.07
2017-11-18T09:28:17.904Z,12.87
2017-11-18T09:30:46.783Z,11.40
2017-11-18T09:33:15.665Z,12.00
2017-11-18T09:35:44.541Z,11.30
2017-11-18T09:38:13.410Z,12.23
2017-11-18T09:40:42.283Z,11.33
2017-11-18T09:43:11.163Z,13.57
2017-11-18T09:45:40.093Z,13.07
2017-11-18T09:48:08.968Z,14.10
2017-11-18T09:50:37.883Z,12.77
2017-11-18T09:53:06.744Z,14.40
2017-11-18T09:55:35.639Z,13.30
2017-11-18T09:58:04.511Z,13.97
2017-11-18T10:00:33.388Z,13.53
2017-11-18T10:03:02.272Z,12.50
2017-11-18T10:05:31.163Z,11.77
2017-11-18T10:08:00.023Z,11.70
2017-11-18T10:10:28.906Z,12.27
2017-11-18T10:12:57.783Z,13.07
2017-11-18T10:15:26.729Z,12.47
2017-11-18T10:17:55.591Z,11.40
2017-11-18T10:20:24.504Z,12.23
2017-11-18T10:22:53.395Z,13.30
2017-11-18T10:25:22.260Z,11.97
2017-11-18T10:27:51.998Z,11.97
2017-11-18T10:30:20.864Z,12.60
2017-11-18T10:32:49.753Z,11.87
2017-11-18T10:35:18.839Z,11.70
2017-11-18T10:37:47.724Z,11.93
2017-11-18T10:40:16.605Z,12.03
2017-11-18T10:42:45.462Z,11.27
2017-11-18T10:45:14.415Z,11.80
2017-11-18T10:47:43.305Z,10.87
2017-11-18T10:50:12.211Z,12.80
2017-11-18T10:52:41.110Z,11.97
2017-11-18T10:55:09.993Z,11.33
2017-11-18T10:57:38.879Z,10.53
2017-11-18T11:00:07.748Z,11.43
2017-11-18T11:02:36.766Z,10.87
2017-11-18T11:05:05.673Z,11.60
2017-11-18T11:07:34.665Z,10.53
2017-11-18T11:10:03.741Z,9.10
2017-11-18T11:12:32.641Z,11.23
2017-11-18T11:15:01.536Z,11.50
2017-11-18T11:17:30.425Z,9.97
2017-11-18T11:19:59.491Z,11.97
2017-11-18T11:22:28.371Z,9.73
2017-11-18T11:24:57.396Z,10.33
2017-11-18T11:27:26.268Z,11.47
2017-11-18T11:29:55.227Z,10.70
2017-11-18T11:32:24.532Z,10.00
2017-11-18T11:34:53.652Z,10.47
2017-11-18T11:37:22.592Z,8.23
2017-11-18T11:39:51.472Z,9.67
2017-11-18T11:42:20.363Z,9.50
2017-11-18T11:44:49.887Z,8.60
2017-11-18T11:47:18.754Z,8.43
2017-11-18T11:49:48.695Z,8.30
2017-11-18T11:52:17.560Z,9.40
2017-11-18T11:54:46.662Z,9.53
2017-11-18T11:57:15.542Z,7.97
2017-11-18T11:59:44.421Z,8.77
2017-11-18T12:02:13.295Z,8.50
2017-11-18T12:04:42.429Z,9.10
2017-11-18T12:07:11.310Z,9.40
2017-11-18T12:09:40.180Z,9.30
2017-11-18T12:12:09.066Z,8.93
2017-11-18T12:14:37.964Z,8.53
2017-11-18T12:17:06.919Z,9.83
2017-11-18T12:19:35.794Z,8.53
2017-11-18T12:22:04.664Z,8.17
2017-11-18T12:24:33.541Z,8.50
2017-11-18T12:27:02.402Z,8.90
2017-11-18T12:29:31.271Z,9.70
2017-11-18T12:32:00.126Z,9.80
2017-11-18T12:34:29.029Z,9.10
2017-11-18T12:36:57.888Z,8.67
2017-11-18T12:39:26.771Z,8.60
2017-11-18T12:41:55.668Z,7.90
2017-11-18T12:44:24.568Z,7.97
2017-11-18T12:46:53.436Z,7.10
2017-11-18T12:49:22.297Z,8.90
2017-11-18T12:51:51.164Z,7.70
2017-11-18T12:54:20.074Z,8.63
2017-11-18T12:56:48.965Z,9.10
2017-11-18T12:59:17.888Z,9.00
2017-11-18T13:01:46.854Z,7.93
2017-11-18T13:04:15.805Z,8.27
2017-11-18T13:06:44.703Z,8.70
2017-11-18T13:09:13.584Z,10.03
2017-11-18T13:11:42.478Z,9.47
2017-11-18T13:14:11.477Z,10.50
2017-11-18T13:16:40.363Z,11.33
2017-11-18T13:19:09.264Z,10.80
2017-11-18T13:21:38.207Z,10.40
2017-11-18T13:24:07.106Z,11.37
2017-11-18T13:26:36.186Z,11.00
2017-11-18T13:29:05.112Z,11.57
2017-11-18T13:31:34.033Z,11.90
2017-11-18T13:34:03.014Z,10.13
2017-11-18T13:36:31.870Z,12.13
2017-11-18T13:39:00.855Z,12.47
2017-11-18T13:41:29.757Z,11.60
2017-11-18T13:43:58.780Z,11.80
2017-11-18T13:46:27.660Z,12.87
2017-11-18T13:48:56.660Z,12.83
2017-11-18T13:51:26.523Z,13.40
2017-11-18T13:53:55.432Z,13.23
2017-11-18T13:56:24.319Z,12.73
2017-11-18T13:58:53.207Z,12.70
2017-11-18T14:01:22.107Z,12.90
2017-11-18T14:03:50.971Z,12.23
2017-11-18T14:06:20.005Z,12.60
2017-11-18T14:08:48.908Z,11.47
2017-11-18T14:11:17.834Z,12.63
2017-11-18T14:13:46.799Z,13.00
2017-11-18T14:16:15.687Z,11.13
2017-11-18T14:18:44.603Z,12.67
2017-11-18T14:21:13.525Z,11.40
2017-11-18T14:23:42.407Z,12.43
2017-11-18T14:26:11.259Z,11.10
2017-11-18T14:28:40.136Z,11.50
2017-11-18T14:31:09.347Z,11.87
2017-11-18T14:33:38.270Z,12.50
2017-11-18T14:36:07.147Z,13.53
2017-11-18T14:38:36.316Z,12.33
2017-11-18T14:41:05.197Z,12.57
2017-11-18T14:43:34.064Z,11.47
2017-11-18T14:46:02.937Z,12.10
2017-11-18T14:48:31.813Z,11.73
2017-11-18T14:51:00.695Z,11.30
2017-11-18T14:53:29.646Z,10.70
2017-11-18T14:55:58.524Z,11.40
2017-11-18T14:58:27.416Z,9.63
2017-11-18T15:00:56.320Z,12.20
2017-11-18T15:03:25.299Z,12.10
2017-11-18T15:05:54.269Z,12.50
2017-11-18T15:08:23.167Z,9.80
2017-11-18T15:10:52.075Z,10.70
2017-11-18T15:13:20.972Z,11.13
2017-11-18T15:15:55.078Z,10.17
2017-11-18T15:18:29.685Z,10.10
2017-11-18T15:21:04.529Z,10.00
2017-11-18T15:23:39.217Z,10.23
2017-11-18T15:26:13.997Z,10.90
2017-11-18T15:28:48.518Z,9.57
2017-11-18T15:31:19.323Z,10.67
2017-11-18T15:33:50.909Z,9.73
2017-11-18T15:36:24.704Z,8.97
2017-11-18T15:38:55.155Z,10.40
2017-11-18T15:41:24.030Z,8.73
2017-11-18T15:44:06.765Z,8.67
2017-11-18T15:46:35.694Z,9.90
2017-11-18T15:49:10.374Z,9.23
2017-11-18T15:51:41.075Z,9.03
2017-11-18T15:54:15.710Z,8.80
2017-11-18T15:56:45.514Z,8.67
2017-11-18T15:59:16.905Z,8.97
2017-11-18T16:01:48.551Z,8.90
2017-11-18T16:04:18.312Z,9.83
2017-11-18T16:07:07.914Z,7.70
2017-11-18T16:09:36.825Z,9.50
2017-11-18T16:12:05.700Z,8.90
2017-11-18T16:14:34.578Z,8.80
2017-11-18T16:17:03.442Z,9.37
2017-11-18T16:19:32.382Z,9.60
2017-11-18T16:22:01.253Z,8.53
2017-11-18T16:24:30.143Z,9.57
2017-11-18T16:26:59.009Z,8.03
2017-11-18T16:29:27.895Z,8.60
2017-11-18T16:31:56.815Z,8.93
2017-11-18T16:34:25.681Z,8.50
2017-11-18T16:36:54.571Z,8.40
2017-11-18T16:39:23.438Z,8.50
2017-11-18T16:41:52.457Z,9.47
2017-11-18T16:44:21.338Z,7.80
2017-11-18T16:46:50.215Z,8.03
2017-11-18T16:49:19.120Z,7.60
2017-11-18T16:51:48.017Z,7.40
2017-11-18T16:54:16.906Z,8.70
2017-11-18T16:56:45.777Z,8.40
2017-11-18T16:59:14.762Z,7.90
2017-11-18T17:01:43.688Z,8.17
2017-11-18T17:04:12.576Z,8.70
2017-11-18T17:06:41.452Z,8.37
2017-11-18T17:09:10.309Z,8.73
2017-11-18T17:11:39.242Z,9.17
2017-11-18T17:14:08.126Z,9.20
2017-11-18T17:16:37.005Z,8.77
2017-11-18T17:19:05.902Z,10.03
2017-11-18T17:21:35.265Z,9.50
2017-11-18T17:24:04.141Z,8.50
2017-11-18T17:26:33.070Z,9.10
2017-11-18T17:29:01.982Z,10.00
2017-11-18T17:31:30.872Z,9.73
2017-11-18T17:33:59.736Z,10.13
2017-11-18T17:36:28.638Z,10.50
2017-11-18T17:38:57.537Z,10.37
2017-11-18T17:41:26.408Z,9.80
2017-11-18T17:43:55.309Z,10.03
2017-11-18T17:46:24.170Z,10.47
2017-11-18T17:48:53.035Z,11.27
2017-11-18T17:51:21.900Z,11.00
2017-11-18T17:53:50.785Z,10.83
2017-11-18T17:56:19.651Z,10.83
2017-11-18T17:58:48.552Z,11.80
2017-11-18T18:01:17.478Z,11.67
2017-11-18T18:03:46.368Z,13.13
2017-11-18T18:06:15.275Z,11.27
2017-11-18T18:08:44.176Z,10.70
2017-11-18T18:11:13.068Z,11.17
2017-11-18T18:13:41.960Z,11.47
2017-11-18T18:16:10.843Z,11.47
2017-11-18T18:18:39.706Z,10.20
2017-11-18T18:21:08.635Z,10.17
2017-11-18T18:23:37.578Z,9.70
2017-11-18T18:26:06.448Z,9.20
2017-11-18T18:28:35.332Z,8.93
2017-11-18T18:31:04.194Z,8.27
2017-11-18T18:33:33.241Z,8.90
2017-11-18T18:36:02.108Z,8.60
2017-11-18T18:38:30.997Z,7.83
2017-11-18T18:40:59.873Z,7.33
2017-11-18T18:43:28.731Z,7.80
2017-11-18T18:45:57.609Z,7.50
2017-11-18T18:48:26.473Z,7.60
2017-11-18T18:50:55.369Z,8.67
2017-11-18T18:53:24.225Z,7.30
2017-11-18T18:55:53.242Z,8.47
2017-11-18T18:58:22.097Z,8.33
2017-11-18T19:00:50.956Z,9.27
2017-11-18T19:03:19.873Z,7.60
2017-11-18T19:05:48.743Z,8.47
2017-11-18T19:08:17.661Z,8.20
2017-11-18T19:10:46.523Z,7.83
2017-11-18T19:13:15.425Z,7.30
2017-11-18T19:15:44.310Z,8.47
2017-11-18T19:18:13.210Z,7.53
2017-11-18T19:20:42.084Z,8.03
2017-11-18T19:23:10.996Z,8.20
2017-11-18T19:25:39.890Z,9.30
2017-11-18T19:28:08.760Z,8.90
2017-11-18T19:30:37.645Z,7.50
2017-11-18T19:33:06.496Z,7.63
2017-11-18T19:35:35.376Z,7.97
2017-11-18T19:38:04.228Z,7.67
2017-11-18T19:40:33.116Z,8.30
2017-11-18T19:43:01.971Z,8.27
2017-11-18T19:45:30.870Z,8.53
2017-11-18T19:47:59.745Z,8.80
2017-11-18T19:50:28.633Z,8.97
2017-11-18T19:52:57.512Z,8.10
2017-11-18T19:55:26.376Z,8.87
2017-11-18T19:57:55.463Z,9.40
2017-11-18T20:00:24.320Z,8.80
2017-11-18T20:02:53.179Z,10.57
2017-11-18T20:05:22.070Z,8.93
2017-11-18T20:07:50.949Z,9.43
2017-11-18T20:10:19.824Z,9.23
2017-11-18T20:12:48.708Z,9.90
2017-11-18T20:15:17.588Z,10.67
2017-11-18T20:17:46.451Z,11.23
2017-11-18T20:20:15.332Z,11.33
2017-11-18T20:22:44.353Z,10.93
2017-11-18T20:25:13.237Z,12.10
2017-11-18T20:27:42.096Z,11.30
2017-11-18T20:30:10.994Z,12.20
2017-11-18T20:32:39.863Z,13.87
2017-11-18T20:35:08.742Z,13.13
2017-11-18T20:37:37.600Z,14.00
2017-11-18T20:40:06.467Z,12.80
2017-11-18T20:42:35.319Z,12.60
2017-11-18T20:45:04.196Z,12.83
2017-11-18T20:47:33.075Z,12.93
2017-11-18T20:50:01.955Z,13.47
2017-11-18T20:52:30.819Z,13.30
2017-11-18T20:54:59.691Z,12.50
2017-11-18T20:57:28.566Z,13.03
2017-11-18T20:59:57.480Z,13.20
2017-11-18T21:02:26.345Z,10.80
2017-11-18T21:04:55.199Z,12.30
2017-11-18T21:07:24.073Z,12.60
2017-11-18T21:09:52.931Z,11.70
2017-11-18T21:12:21.831Z,12.37
2017-11-18T21:14:50.728Z,12.37
2017-11-18T21:17:19.690Z,11.97
2017-11-18T21:19:48.565Z,12.50
2017-11-18T21:22:17.458Z,12.07
2017-11-18T21:24:46.328Z,12.00
2017-11-18T21:27:15.215Z,12.57
2017-11-18T21:29:44.128Z,12.50
2017-11-18T21:32:12.995Z,11.70
2017-11-18T21:34:41.882Z,11.53
2017-11-18T21:37:10.755Z,12.20
2017-11-18T21:39:39.640Z,10.10
2017-11-18T21:42:08.549Z,11.37
2017-11-18T21:44:37.416Z,10.90
2017-11-18T21:47:06.291Z,10.63
2017-11-18T21:49:35.142Z,10.27
2017-11-18T21:52:04.025Z,10.40
2017-11-18T21:54:32.900Z,10.87
2017-11-18T21:57:01.787Z,10.03
2017-11-18T21:59:30.644Z,11.00
2017-11-18T22:01:59.517Z,10.90
2017-11-18T22:04:28.376Z,10.07
2017-11-18T22:06:57.259Z,11.03
2017-11-18T22:09:26.130Z,10.97
2017-11-18T22:11:55.013Z,9.47
2017-11-18T22:14:23.904Z,11.07
2017-11-18T22:16:53.224Z,9.30
2017-11-18T22:19:22.130Z,11.13
2017-11-18T22:21:51.019Z,10.37
2017-11-18T22:24:20.445Z,11.37
2017-11-18T22:26:49.295Z,10.20
2017-11-18T22:29:18.165Z,11.27
2017-11-18T22:31:47.151Z,10.17
2017-11-18T22:34:16.055Z,10.30
2017-11-18T22:36:44.920Z,9.70
2017-11-18T22:39:13.821Z,8.07
2017-11-18T22:41:42.765Z,9.23
2017-11-18T22:44:11.650Z,8.50
2017-11-18T22:46:40.540Z,8.57
2017-11-18T22:49:09.412Z,9.10
2017-11-18T22:51:38.280Z,8.67
2017-11-18T22:54:07.144Z,8.40
2017-11-18T22:56:36.050Z,8.30
2017-11-18T22:59:04.904Z,8.67
2017-11-18T23:01:33.776Z,7.50
2017-11-18T23:04:02.659Z,8.20
2017-11-18T23:06:31.506Z,8.80
2017-11-18T23:09:00.452Z,8.30
2017-11-18T23:11:29.316Z,7.80
2017-11-18T23:13:58.221Z,8.20
2017-11-18T23:16:27.095Z,8.47
2017-11-18T23:18:55.954Z,7.73
2017-11-18T23:21:24.832Z,9.30
2017-11-18T23:23:53.707Z,8.70
2017-11-18T23:26:22.620Z,8.13
2017-11-18T23:28:51.500Z,8.53
2017-11-18T23:31:20.400Z,8.77
2017-11-18T23:33:49.278Z,8.17
2017-11-18T23:36:18.146Z,9.50
2017-11-18T23:38:47.027Z,9.57
2017-11-18T23:41:15.897Z,8.33
2017-11-18T23:43:44.790Z,8.47
2017-11-18T23:46:13.648Z,8.60
2017-11-18T23:48:42.540Z,8.50
2017-11-18T23:51:11.389Z,7.87
2017-11-18T23:53:40.298Z,8.50
2017-11-18T23:56:09.159Z,8.77
2017-11-18T23:58:38.230Z,8.20
